createdAt,value
2023-07-07T00:00:00.030Z,28.00
2023-07-07T00:02:28.104Z,27.95
2023-07-07T00:04:56.257Z,28.06
2023-07-07T00:07:23.917Z,27.82
2023-07-07T00:09:51.863Z,27.98
2023-07-07T00:12:19.919Z,27.90
2023-07-07T00:14:49.377Z,27.86
2023-07-07T00:17:17.319Z,27.91
2023-07-07T00:19:46.044Z,27.82
2023-07-07T00:22:14.861Z,27.73
2023-07-07T00:24:42.567Z,27.96
2023-07-07T00:27:10.449Z,27.96
2023-07-07T00:29:38.449Z,27.86
2023-07-07T00:32:07.017Z,27.76
2023-07-07T00:34:34.947Z,27.92
2023-07-07T00:37:02.672Z,27.91
2023-07-07T00:39:30.460Z,27.86
2023-07-07T00:42:00.104Z,27.81
2023-07-07T00:45:02.970Z,27.89
2023-07-07T00:47:33.788Z,27.76
2023-07-07T00:50:01.655Z,27.71
2023-07-07T00:52:30.603Z,27.69
2023-07-07T00:54:58.359Z,27.83
2023-07-07T00:57:26.679Z,27.68
2023-07-07T00:59:54.431Z,27.80
2023-07-07T01:02:26.943Z,27.64
2023-07-07T01:04:59.409Z,27.66
2023-07-07T01:07:42.832Z,27.75
2023-07-07T01:10:11.499Z,27.75
2023-07-07T01:12:39.266Z,27.56
2023-07-07T01:15:08.514Z,27.73
2023-07-07T01:17:56.637Z,27.69
2023-07-07T01:21:02.656Z,27.70
2023-07-07T01:23:40.000Z,27.70
2023-07-07T01:26:37.226Z,27.63
2023-07-07T01:29:27.117Z,27.68
2023-07-07T01:32:19.622Z,27.58
2023-07-07T01:34:49.034Z,27.68
2023-07-07T01:37:17.015Z,27.60
2023-07-07T01:39:45.783Z,27.37
2023-07-07T01:42:39.994Z,27.66
2023-07-07T01:45:25.765Z,27.66
2023-07-07T01:48:27.569Z,27.48
2023-07-07T01:50:56.494Z,27.49
2023-07-07T01:53:27.521Z,27.57
2023-07-07T01:55:59.010Z,27.63
2023-07-07T01:58:28.969Z,27.60
2023-07-07T02:00:58.013Z,27.45
2023-07-07T02:03:28.615Z,27.57
2023-07-07T02:05:56.416Z,27.35
2023-07-07T02:08:24.247Z,27.56
2023-07-07T02:10:51.985Z,27.60
2023-07-07T02:13:19.834Z,27.49
2023-07-07T02:15:47.769Z,27.64
2023-07-07T02:18:15.691Z,27.48
2023-07-07T02:20:43.474Z,27.60
2023-07-07T02:23:11.171Z,27.66
2023-07-07T02:25:38.848Z,27.57
2023-07-07T02:28:07.190Z,27.54
2023-07-07T02:30:36.942Z,27.68
2023-07-07T02:33:05.178Z,27.69
2023-07-07T02:35:33.705Z,27.70
2023-07-07T02:38:02.221Z,27.55
2023-07-07T02:40:31.013Z,27.70
2023-07-07T02:42:59.012Z,27.41
2023-07-07T02:45:26.839Z,27.66
2023-07-07T02:47:54.605Z,27.65
2023-07-07T02:50:22.376Z,27.65
2023-07-07T02:52:50.078Z,27.49
2023-07-07T02:55:17.900Z,27.34
2023-07-07T02:57:45.774Z,27.56
2023-07-07T03:00:14.458Z,27.62
2023-07-07T03:02:43.072Z,27.60
2023-07-07T03:05:11.334Z,27.29
2023-07-07T03:07:39.438Z,27.59
2023-07-07T03:10:08.579Z,27.59
2023-07-07T03:12:38.157Z,27.53
2023-07-07T03:15:08.937Z,27.53
2023-07-07T03:17:43.698Z,27.58
2023-07-07T03:20:12.593Z,27.49
2023-07-07T03:22:41.683Z,27.59
2023-07-07T03:25:10.561Z,27.54
2023-07-07T03:27:54.529Z,27.33
2023-07-07T03:30:29.582Z,27.45
2023-07-07T03:33:05.498Z,27.57
2023-07-07T03:35:33.902Z,27.25
2023-07-07T03:38:02.148Z,27.48
2023-07-07T03:40:31.933Z,27.28
2023-07-07T03:43:00.128Z,27.51
2023-07-07T03:45:30.171Z,27.40
2023-07-07T03:48:00.368Z,27.39
2023-07-07T03:50:28.046Z,27.31
2023-07-07T03:52:57.294Z,27.31
2023-07-07T03:55:27.539Z,27.29
2023-07-07T03:57:55.333Z,27.40
2023-07-07T04:00:23.396Z,27.11
2023-07-07T04:02:51.897Z,27.30
2023-07-07T04:05:20.440Z,27.36
2023-07-07T04:07:48.488Z,27.17
2023-07-07T04:10:17.967Z,27.15
2023-07-07T04:12:46.316Z,27.36
2023-07-07T04:15:14.429Z,27.15
2023-07-07T04:17:42.292Z,26.93
2023-07-07T04:20:10.814Z,27.18
2023-07-07T04:22:38.625Z,27.30
2023-07-07T04:25:11.813Z,27.12
2023-07-07T04:27:40.196Z,27.33
2023-07-07T04:30:09.567Z,27.34
2023-07-07T04:32:38.502Z,27.33
2023-07-07T04:35:06.598Z,27.19
2023-07-07T04:37:34.374Z,27.27
2023-07-07T04:40:02.252Z,26.94
2023-07-07T04:42:30.151Z,27.33
2023-07-07T04:44:58.037Z,27.17
2023-07-07T04:47:25.991Z,27.23
2023-07-07T04:49:53.675Z,26.96
2023-07-07T04:52:21.591Z,27.15
2023-07-07T04:54:50.774Z,26.96
2023-07-07T04:57:18.432Z,27.13
2023-07-07T04:59:46.188Z,26.91
2023-07-07T05:02:15.353Z,27.02
2023-07-07T05:04:43.286Z,27.02
2023-07-07T05:07:11.165Z,27.05
2023-07-07T05:09:38.872Z,26.94
2023-07-07T05:12:10.547Z,26.80
2023-07-07T05:14:38.291Z,26.87
2023-07-07T05:17:06.345Z,26.74
2023-07-07T05:19:34.303Z,26.64
2023-07-07T05:22:02.033Z,26.81
2023-07-07T05:24:29.859Z,26.96
2023-07-07T05:26:58.252Z,26.79
2023-07-07T05:29:26.446Z,26.96
2023-07-07T05:31:54.577Z,26.90
2023-07-07T05:34:22.642Z,26.92
2023-07-07T05:36:50.714Z,26.73
2023-07-07T05:39:18.584Z,26.90
2023-07-07T05:41:46.334Z,26.65
2023-07-07T05:44:15.638Z,26.91
2023-07-07T05:46:44.880Z,26.56
2023-07-07T05:49:12.793Z,26.88
2023-07-07T05:51:43.477Z,26.89
2023-07-07T05:54:11.334Z,26.83
2023-07-07T05:56:39.074Z,27.09
2023-07-07T05:59:07.541Z,27.09
2023-07-07T06:01:37.030Z,27.03
2023-07-07T06:04:05.233Z,27.01
2023-07-07T06:06:33.210Z,27.08
2023-07-07T06:09:01.029Z,26.96
2023-07-07T06:11:29.252Z,27.16
2023-07-07T06:13:57.023Z,27.10
2023-07-07T06:16:24.990Z,27.07
2023-07-07T06:18:52.833Z,27.07
2023-07-07T06:21:20.700Z,27.15
2023-07-07T06:23:50.412Z,27.15
2023-07-07T06:26:20.271Z,26.91
2023-07-07T06:28:48.017Z,27.12
2023-07-07T06:31:15.985Z,27.20
2023-07-07T06:33:43.884Z,26.99
2023-07-07T06:36:11.864Z,26.92
2023-07-07T06:38:41.996Z,26.98
2023-07-07T06:41:12.911Z,27.19
2023-07-07T06:43:40.782Z,27.27
2023-07-07T06:46:10.067Z,27.11
2023-07-07T06:48:38.114Z,27.25
2023-07-07T06:51:06.079Z,27.25
2023-07-07T06:53:34.890Z,27.23
2023-07-07T06:56:02.863Z,27.24
2023-07-07T06:58:31.767Z,27.29
2023-07-07T07:00:59.659Z,27.25
2023-07-07T07:03:28.876Z,27.29
2023-07-07T07:05:56.797Z,27.21
2023-07-07T07:08:24.556Z,27.30
2023-07-07T07:10:52.538Z,27.18
2023-07-07T07:13:21.653Z,27.30
2023-07-07T07:15:49.667Z,27.09
2023-07-07T07:18:19.317Z,27.10
2023-07-07T07:20:51.710Z,27.18
2023-07-07T07:23:22.527Z,27.25
2023-07-07T07:25:51.595Z,27.35
2023-07-07T07:28:19.332Z,27.26
2023-07-07T07:30:47.506Z,27.31
2023-07-07T07:33:20.339Z,27.33
2023-07-07T07:35:48.861Z,27.10
2023-07-07T07:38:18.504Z,27.35
2023-07-07T07:40:46.416Z,27.38
2023-07-07T07:43:14.280Z,27.38
2023-07-07T07:45:42.182Z,27.33
2023-07-07T07:48:10.286Z,27.28
2023-07-07T07:50:38.543Z,27.22
2023-07-07T07:53:06.749Z,27.41
2023-07-07T07:55:34.566Z,27.13
2023-07-07T07:58:02.556Z,27.12
2023-07-07T08:00:30.504Z,27.10
2023-07-07T08:02:58.452Z,27.23
2023-07-07T08:05:27.228Z,27.47
2023-07-07T08:07:55.278Z,27.49
2023-07-07T08:10:23.107Z,27.31
2023-07-07T08:12:51.400Z,27.46
2023-07-07T08:15:19.280Z,27.57
2023-07-07T08:17:47.034Z,27.52
2023-07-07T08:20:23.048Z,27.39
2023-07-07T08:22:50.985Z,27.53
2023-07-07T08:25:19.050Z,27.47
2023-07-07T08:30:18.079Z,27.66
2023-07-07T08:32:45.963Z,27.54
2023-07-07T08:35:14.478Z,27.72
2023-07-07T08:37:42.406Z,27.13
2023-07-07T08:40:18.579Z,27.74
2023-07-07T08:42:47.224Z,27.75
2023-07-07T08:45:21.256Z,27.75
2023-07-07T08:47:57.945Z,27.75
2023-07-07T08:50:39.499Z,27.76
2023-07-07T08:53:45.031Z,27.73
2023-07-07T08:56:24.601Z,27.72
2023-07-07T08:58:58.536Z,27.69
2023-07-07T09:01:52.253Z,27.70
2023-07-07T09:04:39.160Z,27.66
2023-07-07T09:07:36.890Z,27.75
2023-07-07T09:10:23.395Z,27.75
2023-07-07T09:12:58.922Z,27.73
2023-07-07T09:15:32.423Z,27.62
2023-07-07T09:18:09.368Z,27.69
2023-07-07T09:20:37.777Z,27.83
2023-07-07T09:23:13.480Z,27.86
2023-07-07T09:25:52.955Z,27.87
2023-07-07T09:28:21.012Z,27.72
2023-07-07T09:30:53.316Z,27.82
2023-07-07T09:33:24.617Z,27.74
2023-07-07T09:36:08.509Z,27.85
2023-07-07T09:38:55.365Z,27.88
2023-07-07T09:41:26.655Z,27.85
2023-07-07T09:44:22.515Z,27.83
2023-07-07T09:47:13.551Z,27.86
2023-07-07T09:50:14.329Z,27.68
2023-07-07T09:52:58.099Z,27.85
2023-07-07T09:55:33.776Z,27.79
2023-07-07T09:58:04.532Z,27.83
2023-07-07T10:00:44.948Z,27.77
2023-07-07T10:03:33.389Z,27.67
2023-07-07T10:06:04.501Z,27.79
2023-07-07T10:08:32.903Z,27.60
2023-07-07T10:13:54.382Z,27.85
2023-07-07T10:16:37.724Z,27.88
2023-07-07T10:19:12.782Z,27.88
2023-07-07T10:21:40.690Z,27.53
2023-07-07T10:24:12.299Z,27.94
2023-07-07T10:26:48.528Z,27.95
2023-07-07T10:29:20.102Z,27.92
2023-07-07T10:31:48.109Z,27.85
2023-07-07T10:34:25.220Z,28.02
2023-07-07T10:36:58.112Z,28.05
2023-07-07T10:39:28.377Z,28.11
2023-07-07T10:41:56.287Z,28.01
2023-07-07T10:44:28.611Z,28.21
2023-07-07T10:46:59.489Z,28.24
2023-07-07T10:49:28.363Z,28.09
2023-07-07T10:52:18.535Z,28.32
2023-07-07T10:54:59.697Z,28.32
2023-07-07T10:57:53.318Z,28.36
2023-07-07T11:00:31.037Z,28.38
2023-07-07T11:03:22.037Z,28.31
2023-07-07T11:06:26.278Z,28.40
2023-07-07T11:09:13.069Z,28.39
2023-07-07T11:12:01.781Z,28.37
2023-07-07T11:14:51.228Z,28.36
2023-07-07T11:17:58.546Z,28.25
2023-07-07T11:20:29.496Z,28.36
2023-07-07T11:23:21.341Z,28.38
2023-07-07T11:25:59.047Z,28.38
2023-07-07T11:28:54.592Z,28.39
2023-07-07T11:31:40.085Z,28.33
2023-07-07T11:34:34.543Z,28.36
2023-07-07T11:37:23.479Z,28.40
2023-07-07T11:40:06.135Z,28.39
2023-07-07T11:43:01.372Z,28.41
2023-07-07T11:45:56.900Z,28.45
2023-07-07T11:48:41.398Z,28.45
2023-07-07T11:51:20.962Z,28.47
2023-07-07T11:54:00.764Z,28.49
2023-07-07T11:57:12.884Z,28.27
2023-07-07T11:59:52.977Z,28.51
2023-07-07T12:02:27.926Z,28.43
2023-07-07T12:04:58.833Z,28.50
2023-07-07T12:07:49.364Z,28.36
2023-07-07T12:10:24.204Z,28.47
2023-07-07T12:13:07.301Z,28.20
2023-07-07T12:15:41.428Z,28.33
2023-07-07T12:18:34.157Z,28.41
2023-07-07T12:21:14.631Z,28.41
2023-07-07T12:24:08.270Z,28.24
2023-07-07T12:26:43.561Z,28.45
2023-07-07T12:29:18.142Z,28.48
2023-07-07T12:31:48.457Z,28.42
2023-07-07T12:34:47.986Z,28.41
2023-07-07T12:37:23.056Z,28.46
2023-07-07T12:40:10.569Z,28.38
2023-07-07T12:42:43.534Z,28.42
2023-07-07T12:45:34.471Z,28.42
2023-07-07T12:48:08.124Z,28.32
2023-07-07T12:50:40.515Z,28.37
2023-07-07T12:53:18.811Z,28.35
2023-07-07T12:56:08.802Z,28.36
2023-07-07T12:58:51.632Z,28.34
2023-07-07T13:01:19.687Z,28.33
2023-07-07T13:04:06.866Z,28.31
2023-07-07T13:06:38.419Z,28.15
2023-07-07T13:09:19.635Z,28.27
2023-07-07T13:11:56.526Z,28.06
2023-07-07T13:14:44.880Z,28.29
2023-07-07T13:17:28.816Z,28.24
2023-07-07T13:20:03.310Z,28.27
2023-07-07T13:22:39.285Z,28.30
2023-07-07T13:25:37.725Z,28.34
2023-07-07T13:28:13.325Z,28.35
2023-07-07T13:30:56.122Z,28.21
2023-07-07T13:33:28.535Z,28.17
2023-07-07T13:36:01.573Z,28.34
2023-07-07T13:38:36.041Z,28.25
2023-07-07T13:41:10.220Z,28.36
2023-07-07T13:43:45.727Z,28.24
2023-07-07T13:46:20.813Z,28.35
2023-07-07T13:49:37.055Z,28.36
2023-07-07T13:52:22.667Z,28.38
2023-07-07T13:54:51.501Z,28.26
2023-07-07T13:57:29.387Z,28.37
2023-07-07T13:59:58.195Z,28.37
2023-07-07T14:02:26.803Z,28.33
2023-07-07T14:05:07.651Z,28.46
2023-07-07T14:07:39.838Z,28.35
2023-07-07T14:10:31.584Z,28.40
2023-07-07T14:13:00.266Z,28.24
2023-07-07T14:15:36.804Z,28.33
2023-07-07T14:18:08.142Z,28.31
2023-07-07T14:20:46.718Z,28.22
2023-07-07T14:23:17.316Z,28.25
2023-07-07T14:25:48.488Z,28.24
2023-07-07T14:28:19.577Z,28.14
2023-07-07T14:30:55.446Z,28.24
2023-07-07T14:33:28.011Z,28.10
2023-07-07T14:35:58.011Z,28.17
2023-07-07T14:38:36.390Z,28.19
2023-07-07T14:41:17.857Z,28.03
2023-07-07T14:43:45.806Z,27.99
2023-07-07T14:46:21.508Z,28.15
2023-07-07T14:48:57.550Z,28.01
2023-07-07T14:51:33.845Z,28.02
2023-07-07T14:54:03.989Z,28.09
2023-07-07T14:56:47.747Z,27.99
2023-07-07T14:59:22.132Z,28.10
2023-07-07T15:01:58.350Z,27.84
2023-07-07T15:04:34.585Z,28.12
2023-07-07T15:07:04.494Z,28.03
2023-07-07T15:09:32.287Z,27.86
2023-07-07T15:12:00.950Z,27.87
2023-07-07T15:14:28.597Z,28.14
2023-07-07T15:16:56.578Z,28.09
2023-07-07T15:19:24.509Z,28.16
2023-07-07T15:21:52.392Z,28.09
2023-07-07T15:24:20.411Z,27.95
2023-07-07T15:26:49.279Z,28.15
2023-07-07T15:29:23.393Z,28.10
2023-07-07T15:31:51.149Z,27.90
2023-07-07T15:34:20.915Z,28.10
2023-07-07T15:36:48.654Z,27.96
2023-07-07T15:39:16.508Z,27.94
2023-07-07T15:41:44.538Z,28.19
2023-07-07T15:44:12.790Z,27.95
2023-07-07T15:46:48.305Z,28.17
2023-07-07T15:49:19.736Z,28.16
2023-07-07T15:51:47.997Z,28.16
2023-07-07T15:54:16.131Z,28.00
2023-07-07T15:56:46.507Z,28.18
2023-07-07T15:59:23.193Z,28.19
2023-07-07T16:01:56.331Z,28.10
2023-07-07T16:04:24.551Z,27.97
2023-07-07T16:06:56.520Z,28.08
2023-07-07T16:09:29.050Z,28.31
2023-07-07T16:11:58.935Z,28.34
2023-07-07T16:14:29.906Z,28.29
2023-07-07T16:16:59.249Z,28.38
2023-07-07T16:19:28.998Z,28.39
2023-07-07T16:22:06.288Z,28.40
2023-07-07T16:24:44.771Z,28.41
2023-07-07T16:27:20.772Z,28.41
2023-07-07T16:29:53.235Z,28.41
2023-07-07T16:32:24.031Z,28.28
2023-07-07T16:34:52.404Z,28.28
2023-07-07T16:37:27.418Z,28.32
2023-07-07T16:39:55.548Z,28.32
2023-07-07T16:42:26.200Z,28.42
2023-07-07T16:44:56.133Z,28.24
2023-07-07T16:47:24.130Z,28.42
2023-07-07T16:49:52.132Z,28.30
2023-07-07T16:52:22.185Z,28.43
2023-07-07T16:54:50.160Z,28.38
2023-07-07T16:57:19.886Z,28.29
2023-07-07T16:59:47.971Z,28.42
2023-07-07T17:02:15.604Z,28.14
2023-07-07T17:04:43.468Z,28.42
2023-07-07T17:07:11.611Z,28.38
2023-07-07T17:09:39.557Z,28.31
2023-07-07T17:12:12.571Z,28.39
2023-07-07T17:14:40.564Z,28.33
2023-07-07T17:17:12.893Z,28.40
2023-07-07T17:19:40.838Z,28.11
2023-07-07T17:22:08.646Z,28.11
2023-07-07T17:24:37.213Z,28.44
2023-07-07T17:27:05.635Z,28.45
2023-07-07T17:29:34.243Z,28.33
2023-07-07T17:32:02.171Z,28.47
2023-07-07T17:34:30.019Z,28.48
2023-07-07T17:36:57.784Z,28.41
2023-07-07T17:39:26.123Z,28.35
2023-07-07T17:41:53.866Z,28.49
2023-07-07T17:44:21.823Z,28.49
2023-07-07T17:46:49.866Z,28.45
2023-07-07T17:49:21.964Z,28.48
2023-07-07T17:51:50.540Z,28.48
2023-07-07T17:54:18.430Z,28.07
2023-07-07T17:56:46.174Z,28.41
2023-07-07T17:59:20.440Z,28.50
2023-07-07T18:01:49.796Z,28.28
2023-07-07T18:04:17.886Z,28.62
2023-07-07T18:06:51.863Z,28.60
2023-07-07T18:09:21.101Z,28.50
2023-07-07T18:11:51.294Z,28.42
2023-07-07T18:14:21.074Z,28.60
2023-07-07T18:17:00.355Z,28.56
2023-07-07T18:19:57.988Z,28.51
2023-07-07T18:22:27.207Z,28.62
2023-07-07T18:24:55.441Z,28.41
2023-07-07T18:27:23.275Z,28.31
2023-07-07T18:29:51.725Z,28.59
2023-07-07T18:32:19.721Z,28.59
2023-07-07T18:34:47.523Z,28.58
2023-07-07T18:37:16.875Z,28.57
2023-07-07T18:39:48.302Z,28.41
2023-07-07T18:42:16.038Z,28.42
2023-07-07T18:44:43.850Z,28.55
2023-07-07T18:47:16.111Z,28.54
2023-07-07T18:49:46.857Z,28.53
2023-07-07T18:52:15.549Z,28.46
2023-07-07T18:54:43.461Z,28.35
2023-07-07T18:57:11.594Z,28.48
2023-07-07T18:59:39.629Z,28.53
2023-07-07T19:02:15.987Z,28.27
2023-07-07T19:04:44.481Z,28.55
2023-07-07T19:07:14.100Z,28.54
2023-07-07T19:09:43.267Z,28.45
2023-07-07T19:12:14.296Z,28.42
2023-07-07T19:14:42.139Z,28.25
2023-07-07T19:17:13.402Z,28.48
2023-07-07T19:19:41.185Z,28.28
2023-07-07T19:22:13.789Z,28.48
2023-07-07T19:24:41.544Z,28.43
2023-07-07T19:27:12.232Z,28.47
2023-07-07T19:29:40.159Z,28.27
2023-07-07T19:32:19.281Z,28.39
2023-07-07T19:34:47.229Z,28.20
2023-07-07T19:37:15.115Z,28.05
2023-07-07T19:39:44.015Z,27.73
2023-07-07T19:42:13.215Z,27.91
2023-07-07T19:44:42.552Z,28.10
2023-07-07T19:47:14.847Z,28.11
2023-07-07T19:49:42.977Z,28.04
2023-07-07T19:52:16.744Z,28.02
2023-07-07T19:54:45.323Z,28.00
2023-07-07T19:57:24.095Z,27.90
2023-07-07T19:59:51.968Z,27.98
2023-07-07T20:02:21.672Z,28.00
2023-07-07T20:04:49.957Z,27.91
2023-07-07T20:07:17.796Z,27.82
2023-07-07T20:09:45.682Z,27.72
2023-07-07T20:12:16.145Z,27.66
2023-07-07T20:14:43.944Z,27.83
2023-07-07T20:17:13.698Z,27.81
2023-07-07T20:19:45.512Z,27.98
2023-07-07T20:22:14.483Z,28.00
2023-07-07T20:24:42.977Z,28.00
2023-07-07T20:27:12.805Z,27.90
2023-07-07T20:29:41.024Z,27.81
2023-07-07T20:32:15.177Z,27.98
2023-07-07T20:34:43.047Z,28.05
2023-07-07T20:37:15.552Z,27.82
2023-07-07T20:39:44.708Z,28.10
2023-07-07T20:42:14.454Z,28.12
2023-07-07T20:44:43.621Z,27.82
2023-07-07T20:47:13.522Z,28.13
2023-07-07T20:49:42.166Z,28.13
2023-07-07T20:52:14.120Z,28.00
2023-07-07T20:54:41.904Z,28.15
2023-07-07T20:57:19.092Z,27.85
2023-07-07T20:59:48.344Z,27.75
2023-07-07T21:02:17.216Z,28.12
2023-07-07T21:04:45.192Z,28.12
2023-07-07T21:07:14.229Z,28.09
2023-07-07T21:09:42.735Z,28.09
2023-07-07T21:12:11.148Z,27.66
2023-07-07T21:14:39.064Z,27.99
2023-07-07T21:17:06.971Z,28.05
2023-07-07T21:19:34.937Z,28.00
2023-07-07T21:22:02.827Z,28.03
2023-07-07T21:24:30.659Z,27.86
2023-07-07T21:26:58.488Z,27.94
2023-07-07T21:29:26.280Z,28.05
2023-07-07T21:31:54.124Z,28.09
2023-07-07T21:34:21.990Z,27.94
2023-07-07T21:36:49.752Z,27.87
2023-07-07T21:39:29.614Z,28.05
2023-07-07T21:44:31.100Z,27.85
2023-07-07T21:46:59.205Z,28.03
2023-07-07T21:49:27.998Z,28.04
2023-07-07T21:51:56.438Z,28.02
2023-07-07T21:54:24.304Z,28.03
2023-07-07T21:56:52.534Z,27.91
2023-07-07T21:59:22.813Z,28.08
2023-07-07T22:01:54.252Z,28.05
2023-07-07T22:04:27.839Z,28.06
2023-07-07T22:06:55.694Z,28.06
2023-07-07T22:09:25.875Z,28.05
2023-07-07T22:11:54.095Z,28.01
2023-07-07T22:14:22.379Z,27.98
2023-07-07T22:16:50.222Z,28.06
2023-07-07T22:19:20.185Z,27.99
2023-07-07T22:21:48.151Z,27.82
2023-07-07T22:24:16.197Z,28.02
2023-07-07T22:26:43.962Z,27.92
2023-07-07T22:29:13.789Z,28.03
2023-07-07T22:31:42.008Z,27.96
2023-07-07T22:34:09.904Z,27.93
2023-07-07T22:36:41.037Z,28.03
2023-07-07T22:39:12.862Z,27.96
2023-07-07T22:41:40.623Z,27.68
2023-07-07T22:44:09.243Z,27.86
2023-07-07T22:46:42.304Z,28.01
2023-07-07T22:49:14.530Z,28.03
2023-07-07T22:51:44.427Z,27.96
2023-07-07T22:54:12.309Z,27.65
2023-07-07T22:56:41.168Z,27.96
2023-07-07T22:59:21.337Z,28.01
2023-07-07T23:01:49.528Z,27.84
2023-07-07T23:04:17.800Z,28.01
2023-07-07T23:06:47.482Z,27.93
2023-07-07T23:09:47.788Z,28.00
2023-07-07T23:12:21.636Z,27.80
2023-07-07T23:14:50.819Z,27.68
2023-07-07T23:17:25.051Z,27.91
2023-07-07T23:19:57.137Z,27.87
2023-07-07T23:22:32.044Z,27.90
2023-07-07T23:25:01.595Z,27.90
2023-07-07T23:27:35.068Z,27.79
2023-07-07T23:30:17.517Z,27.82
2023-07-07T23:32:47.111Z,27.65
2023-07-07T23:35:15.961Z,27.88
2023-07-07T23:37:44.746Z,27.86
2023-07-07T23:40:34.323Z,27.70
2023-07-07T23:43:02.394Z,27.63
2023-07-07T23:45:30.697Z,27.75
2023-07-07T23:48:01.482Z,27.79
2023-07-07T23:50:34.523Z,27.84
2023-07-07T23:53:02.396Z,27.71
2023-07-07T23:55:32.342Z,27.70
2023-07-07T23:58:00.821Z,27.70
